Douglass, Texas
Current Conditions -  °F | °C
As of 1:15 PM on Thursday 30 Oct 2014 (Local Time) from KOCH Reporting Station
Clear Clear  
Wind Chill: 70°   Ceiling: Unl
Heat Index: 70°   Visibility: 10mi
Dew Point: 39°   Wind: 5mph
Humidity: 33%   Direction: 130°SE
Pressure: 30.15"   Gusts: NA
Location:  31.67°N, 94.88°W
Report Text: KOCH 301815Z AUTO 13004KT 10SM CLR 21/04 A3015 RMK AO1
Loading
Personal Weather Stations






























Interactive Weather Map New forecast layout! Learn more

10-Day Weather Forecast

Advertisements
Track Severe Weather on mobile